메인 페이지
METAR-TAF:

METAR-TAF

공항 :

Fort Sill, 오클라호마, 미국

위도: 34-36N, 경도: 098-24W, 고도: 362m

현재 날씨관측

예보는 44분 전, 04:56시(UTC)에 발표되었습니다.
6kt
온도 23°C
습도 100%
기압 1015 hPa
시정: 16.1km
맑음

METAR: KFSI 240456Z AUTO 08006KT 10SM CLR 23/23 A2998 RMK AO2 SLP143 T02330231

시각: 00:40 (05:40 UTC)

예보

예보는 8 시간 40분 전, 21:00시(UTC)에 발표되었습니다.
예보 대상 시간: 23일 21시부터 25일 03시까지 (UTC)
남동12kt, 순간 최대 풍속 18kt
시정 10km 이상
고도 5000ft 상공 구름 조금
전환 중
24일 02시부터 24일 03시까지 (UTC)
동남동9kt
시정 10km 이상
고도 5000ft 상공 구름 보통
고도 10000ft 상공 구름 많음
전환 중
24일 11시부터 24일 12시까지 (UTC)
여러 방향의 바람 6kt
시정: 9000m
고도 2000ft 상공 구름 보통
고도 5000ft 상공 구름 많음
약한소나기
일시적
24일 13시부터 24일 15시까지 (UTC)
여러 방향의 바람 15kt, 순간 최대 풍속 25kt
시정: 8000m
고도 2000ft 상공 구름 많음, 적란운.
뇌우, 약한비
전환 중
24일 16시부터 24일 17시까지 (UTC)
남남동12kt, 순간 최대 풍속 18kt
시정: 2613m
고도 5000ft 상공 구름 많음
고도 10000ft 상공 구름 많음

TAF: KFSI 232100Z 2321/2503 13012G18KT 9999 FEW050 QNH2983INS BECMG 2402/2403 12009KT 9999 SCT050 BKN100 QNH2988INS BECMG 2411/2412 VRB06KT 9000 -SHRA SCT020 BKN050 QNH2991INS TEMPO 2413/2415 VRB15G25KT 8000 -TSRA BKN020CB BECMG 2416/2417 15012G18KT 9999 NSW BKN050 BKN100 QNH2985INS TX32/2321Z TN22/2412Z LAST NO AMDS AFT 2323 NEXT 2613

4,000개 이상의 공항 관측 자료 및 예보 (METAR 및 TAF 보고).

지도상에서 검색 가능한 기상관측소가 노란 점과 빨간 점으로 표시되어 있습니다.

기상관측소 명을 보려면 표시 위로 마우스를 이동하세요.

날씨 관측과 예보를 보려면 클릭하세요.

지도 변경 : 확대하려면 엑스 표시가 있는 녹색 버튼, 축소하려면 빼기 표시가 있는 녹색 버튼, 다음 페이지의 지도를 보려면 녹색 화살표를 클릭하세요.


METAR-TAF: